Time;durP1;ratioP1;P1;durP2;ratioP2;P2;SDS_P1;SDS_P2;PMS_P1;PMS_P2;Temp;Humidity;BMP_temperature;BMP_pressure;BME280_temperature;BME280_humidity;BME280_pressure;Samples;Min_cycle;Max_cycle;Signal;HPM_P1;HPM_P2
2022/07/29 00:02:25;;;;;;;;;;;21.70;83.50;;;;;;4957696;28;19922;-79
2022/07/29 00:04:57;;;;;;;;;;;21.70;83.20;;;;;;4940745;28;19974;-80
2022/07/29 00:07:25;;;;;;;;;;;21.60;84.10;;;;;;4931743;28;19968;-80
2022/07/29 00:09:52;;;;;;;;;;;21.60;84.20;;;;;;4946962;28;19921;-79
2022/07/29 00:12:24;;;;;;;;;;;21.70;84.20;;;;;;4949135;28;20064;-79
2022/07/29 00:14:50;;;;;;;;;;;21.70;83.90;;;;;;4956705;28;20640;-80
2022/07/29 00:17:20;;;;;;;;;;;21.70;84.10;;;;;;4949436;28;19925;-79
2022/07/29 00:19:47;;;;;;;;;;;21.70;84.70;;;;;;4943455;28;19922;-81
2022/07/29 00:22:15;;;;;;;;;;;21.60;85.00;;;;;;4943160;28;19937;-81
2022/07/29 00:24:49;;;;;;;;;;;21.60;85.50;;;;;;4947733;28;19911;-80
2022/07/29 00:27:14;;;;;;;;;;;21.60;84.90;;;;;;4937596;28;20323;-79
2022/07/29 00:29:46;;;;;;;;;;;21.50;85.00;;;;;;4956055;28;19956;-80
2022/07/29 00:32:20;;;;;;;;;;;21.50;85.60;;;;;;4936462;28;19946;-80
2022/07/29 00:37:33;;;;;;;;;;;21.40;86.70;;;;;;4951251;28;19926;-80
2022/07/29 00:40:00;;;;;;;;;;;21.40;86.80;;;;;;4942574;28;19922;-80
2022/07/29 00:42:40;;;;;;;;;;;21.40;86.00;;;;;;4957060;28;19918;-81
2022/07/29 00:45:07;;;;;;;;;;;21.40;86.20;;;;;;4945887;28;19911;-81
2022/07/29 00:47:33;;;;;;;;;;;21.30;86.70;;;;;;4947617;28;19921;-80
2022/07/29 00:50:01;;;;;;;;;;;21.30;87.00;;;;;;4958350;28;19914;-80
2022/07/29 00:52:28;;;;;;;;;;;21.30;86.80;;;;;;4956970;28;20937;-80
2022/07/29 00:54:56;;;;;;;;;;;21.30;86.80;;;;;;4954627;28;20417;-80
2022/07/29 00:57:27;;;;;;;;;;;21.30;87.00;;;;;;4938527;28;20419;-80
2022/07/29 00:59:53;;;;;;;;;;;21.30;87.10;;;;;;4947917;28;20966;-80
2022/07/29 01:02:20;;;;;;;;;;;21.30;87.40;;;;;;4954375;28;19922;-80
2022/07/29 01:04:46;;;;;;;;;;;21.30;87.10;;;;;;4943038;28;19907;-80
2022/07/29 01:07:12;;;;;;;;;;;21.20;88.10;;;;;;4938501;28;20018;-80
2022/07/29 01:09:38;;;;;;;;;;;21.20;87.70;;;;;;4953640;28;19989;-79
2022/07/29 01:12:05;;;;;;;;;;;21.20;87.70;;;;;;4952214;28;19911;-80
2022/07/29 01:14:33;;;;;;;;;;;21.20;88.10;;;;;;4957645;28;19934;-80
2022/07/29 01:17:02;;;;;;;;;;;21.20;88.40;;;;;;4955952;28;19934;-80
2022/07/29 01:19:46;;;;;;;;;;;21.20;89.00;;;;;;4949981;28;20880;-80
2022/07/29 01:22:15;;;;;;;;;;;21.10;88.80;;;;;;4942367;28;19911;-80
2022/07/29 01:24:59;;;;;;;;;;;21.10;88.90;;;;;;4939888;28;20008;-80
2022/07/29 01:27:46;;;;;;;;;;;21.00;89.70;;;;;;4950451;28;19919;-79
2022/07/29 01:30:14;;;;;;;;;;;21.00;90.00;;;;;;4945038;28;19919;-80
2022/07/29 01:32:40;;;;;;;;;;;21.00;90.10;;;;;;4941773;28;19946;-79
2022/07/29 01:35:06;;;;;;;;;;;20.90;90.00;;;;;;4930990;28;19969;-81
2022/07/29 01:37:38;;;;;;;;;;;20.90;90.50;;;;;;4944515;28;19919;-80
2022/07/29 01:40:04;;;;;;;;;;;20.90;90.40;;;;;;4938455;28;20050;-82
2022/07/29 01:42:33;;;;;;;;;;;20.90;90.50;;;;;;4933076;28;19922;-80
2022/07/29 01:45:25;;;;;;;;;;;20.90;90.40;;;;;;4934799;28;20020;-79
2022/07/29 01:48:06;;;;;;;;;;;20.90;90.30;;;;;;4908434;28;20306;-81
2022/07/29 01:50:40;;;;;;;;;;;20.90;90.70;;;;;;4937963;28;19941;-80
2022/07/29 01:53:07;;;;;;;;;;;20.80;90.60;;;;;;4936113;28;19911;-82
2022/07/29 01:55:34;;;;;;;;;;;20.80;90.80;;;;;;4942957;28;19914;-81
2022/07/29 01:58:04;;;;;;;;;;;20.90;90.80;;;;;;4961015;28;19922;-80
2022/07/29 02:00:31;;;;;;;;;;;20.90;90.50;;;;;;4943640;28;19921;-80
2022/07/29 02:03:00;;;;;;;;;;;20.80;90.90;;;;;;4957720;28;19918;-80
2022/07/29 02:05:27;;;;;;;;;;;20.80;91.00;;;;;;4946632;28;19914;-80
2022/07/29 02:07:55;;;;;;;;;;;20.80;91.20;;;;;;4943517;28;20371;-80
2022/07/29 02:10:23;;;;;;;;;;;20.70;91.20;;;;;;4953163;28;19919;-80
2022/07/29 02:13:02;;;;;;;;;;;20.70;91.30;;;;;;4957580;28;19984;-80
2022/07/29 02:15:30;;;;;;;;;;;20.70;91.50;;;;;;4950598;28;19925;-80
2022/07/29 02:18:05;;;;;;;;;;;20.70;91.60;;;;;;4945478;28;19922;-80
2022/07/29 02:20:37;;;;;;;;;;;20.70;91.80;;;;;;4949896;28;19921;-81
2022/07/29 02:23:20;;;;;;;;;;;20.70;91.70;;;;;;4944265;28;20002;-80
2022/07/29 02:25:58;;;;;;;;;;;20.60;91.60;;;;;;4961380;28;19914;-79
2022/07/29 02:28:26;;;;;;;;;;;20.60;91.90;;;;;;4945481;28;20029;-80
2022/07/29 02:30:53;;;;;;;;;;;20.60;92.00;;;;;;4947743;28;19989;-82
2022/07/29 02:33:19;;;;;;;;;;;20.60;92.00;;;;;;4957160;28;19918;-81
2022/07/29 02:35:47;;;;;;;;;;;20.60;92.30;;;;;;4954850;28;19950;-80
2022/07/29 02:41:08;;;;;;;;;;;20.50;92.40;;;;;;4947457;28;20070;-80
2022/07/29 02:43:38;;;;;;;;;;;20.50;92.50;;;;;;4948848;28;20002;-80
2022/07/29 02:46:13;;;;;;;;;;;20.50;92.50;;;;;;4947528;28;20275;-80
2022/07/29 02:49:05;;;;;;;;;;;20.40;92.60;;;;;;4945966;28;20666;-80
2022/07/29 02:51:40;;;;;;;;;;;20.40;92.40;;;;;;4942280;28;19993;-81
2022/07/29 02:54:07;;;;;;;;;;;20.40;92.90;;;;;;4968459;28;19949;-80
2022/07/29 02:56:45;;;;;;;;;;;20.40;93.20;;;;;;4947404;28;19915;-79
2022/07/29 02:59:15;;;;;;;;;;;20.40;93.10;;;;;;4951903;28;19964;-80
2022/07/29 03:01:45;;;;;;;;;;;20.40;93.20;;;;;;4943505;28;20652;-80
2022/07/29 03:04:14;;;;;;;;;;;20.40;93.40;;;;;;4960617;28;20728;-80
2022/07/29 03:06:40;;;;;;;;;;;20.30;93.40;;;;;;4933732;28;20407;-80
2022/07/29 03:09:07;;;;;;;;;;;20.30;93.50;;;;;;4945380;28;19921;-80
2022/07/29 03:11:34;;;;;;;;;;;20.30;93.60;;;;;;4960517;28;19922;-79
2022/07/29 03:14:01;;;;;;;;;;;20.30;93.40;;;;;;4944504;28;19917;-80
2022/07/29 03:16:27;;;;;;;;;;;20.30;93.40;;;;;;4957102;28;20297;-80
2022/07/29 03:18:52;;;;;;;;;;;20.30;93.80;;;;;;4959666;28;20034;-80
2022/07/29 03:21:20;;;;;;;;;;;20.30;93.70;;;;;;4944655;28;19983;-80
2022/07/29 03:23:47;;;;;;;;;;;20.30;93.80;;;;;;4943720;28;20264;-80
2022/07/29 03:26:13;;;;;;;;;;;20.30;94.00;;;;;;4958625;28;20001;-80
2022/07/29 03:28:38;;;;;;;;;;;20.20;94.20;;;;;;4963437;28;20006;-80
2022/07/29 03:31:05;;;;;;;;;;;20.20;94.40;;;;;;4958243;28;19911;-79
2022/07/29 03:33:31;;;;;;;;;;;20.20;94.60;;;;;;4946362;28;19966;-79
2022/07/29 03:35:57;;;;;;;;;;;20.10;94.60;;;;;;4949440;28;19983;-79
2022/07/29 03:38:24;;;;;;;;;;;20.10;94.70;;;;;;4960611;28;19933;-80
2022/07/29 03:40:52;;;;;;;;;;;20.10;94.80;;;;;;4956570;28;20013;-80
2022/07/29 03:43:18;;;;;;;;;;;20.10;94.90;;;;;;4964116;28;19910;-80
2022/07/29 03:45:45;;;;;;;;;;;20.10;95.00;;;;;;4946203;28;19922;-80
2022/07/29 03:48:26;;;;;;;;;;;20.20;95.30;;;;;;4944374;28;20614;-80
2022/07/29 03:50:52;;;;;;;;;;;20.10;95.20;;;;;;4945460;28;20387;-79
2022/07/29 03:53:20;;;;;;;;;;;20.10;95.30;;;;;;4945681;28;19969;-80
2022/07/29 03:55:48;;;;;;;;;;;20.10;95.50;;;;;;4941266;28;19924;-80
2022/07/29 03:58:16;;;;;;;;;;;20.10;95.70;;;;;;4942001;28;19915;-79
2022/07/29 04:00:55;;;;;;;;;;;20.10;95.60;;;;;;4952087;28;19918;-80
2022/07/29 04:03:22;;;;;;;;;;;20.10;95.60;;;;;;4936539;28;19965;-79
2022/07/29 04:05:58;;;;;;;;;;;20.10;95.90;;;;;;4956442;28;19911;-80
2022/07/29 04:08:26;;;;;;;;;;;20.10;95.80;;;;;;4957776;28;19914;-79
2022/07/29 04:10:52;;;;;;;;;;;20.10;95.90;;;;;;4956742;28;19914;-80
2022/07/29 04:13:24;;;;;;;;;;;20.20;96.40;;;;;;4938467;28;19970;-79
2022/07/29 04:15:58;;;;;;;;;;;20.30;96.20;;;;;;4940109;28;20056;-80
2022/07/29 04:18:24;;;;;;;;;;;20.40;96.50;;;;;;4952036;28;20287;-80
2022/07/29 04:20:50;;;;;;;;;;;20.30;96.30;;;;;;4938339;28;19922;-81
2022/07/29 04:23:21;;;;;;;;;;;20.40;96.40;;;;;;4955361;28;19965;-81
2022/07/29 04:25:48;;;;;;;;;;;20.50;96.10;;;;;;4951052;28;20650;-80
2022/07/29 04:28:15;;;;;;;;;;;20.70;95.80;;;;;;4954951;28;19915;-80
2022/07/29 04:33:14;;;;;;;;;;;20.90;95.60;;;;;;4982939;28;19914;-77
2022/07/29 04:35:45;;;;;;;;;;;20.80;95.60;;;;;;4984276;28;20290;-83
2022/07/29 04:53:43;;;;;;;;;;;21.50;94.00;;;;;;5795350;23;19977;-82
2022/07/29 05:24:42;;;;;;;;;;;23.10;90.10;;;;;;5757707;23;19926;-86
2022/07/29 05:35:11;;;;;;;;;;;23.90;87.30;;;;;;5404858;23;20438;-80
2022/07/29 05:37:38;;;;;;;;;;;24.10;86.80;;;;;;4977640;28;19953;-80
2022/07/29 05:40:23;;;;;;;;;;;24.00;87.30;;;;;;4979846;28;19914;-80
2022/07/29 05:43:06;;;;;;;;;;;24.00;86.60;;;;;;4963418;28;19910;-80
2022/07/29 05:45:34;;;;;;;;;;;23.90;86.10;;;;;;4944504;28;19914;-80
2022/07/29 05:48:01;;;;;;;;;;;23.70;87.10;;;;;;4950685;28;19914;-78
2022/07/29 05:50:27;;;;;;;;;;;23.90;87.30;;;;;;4945010;28;19957;-80
2022/07/29 05:52:58;;;;;;;;;;;23.80;87.30;;;;;;4954272;28;19922;-78
2022/07/29 05:55:23;;;;;;;;;;;23.80;87.30;;;;;;4950478;28;19915;-78
2022/07/29 05:57:49;;;;;;;;;;;23.80;87.70;;;;;;4946609;28;20352;-79
2022/07/29 06:00:15;;;;;;;;;;;24.40;87.00;;;;;;4948571;28;20040;-80
2022/07/29 06:02:41;;;;;;;;;;;25.30;84.90;;;;;;4952976;28;19914;-81
2022/07/29 06:05:22;;;;;;;;;;;26.30;81.70;;;;;;4942715;28;19911;-74
2022/07/29 06:07:53;;;;;;;;;;;26.10;80.70;;;;;;4949001;28;19965;-86
2022/07/29 06:10:21;;;;;;;;;;;26.50;80.30;;;;;;4949675;28;20431;-85
2022/07/29 06:12:52;;;;;;;;;;;27.20;78.90;;;;;;4949191;28;21379;-83
2022/07/29 06:15:19;;;;;;;;;;;27.70;76.20;;;;;;4950369;28;19914;-85
2022/07/29 06:17:48;;;;;;;;;;;26.90;76.70;;;;;;4951723;28;19914;-85
2022/07/29 06:20:14;;;;;;;;;;;26.60;78.20;;;;;;4946433;28;19919;-85
2022/07/29 06:22:40;;;;;;;;;;;27.00;77.70;;;;;;4947456;28;19961;-86
2022/07/29 06:25:06;;;;;;;;;;;27.70;76.80;;;;;;4946928;28;19918;-85
2022/07/29 06:27:35;;;;;;;;;;;27.70;74.90;;;;;;4946750;28;19961;-83
2022/07/29 06:30:07;;;;;;;;;;;26.80;78.00;;;;;;4946367;28;19981;-85
2022/07/29 06:32:35;;;;;;;;;;;26.80;77.90;;;;;;4944664;28;19910;-86
2022/07/29 06:35:00;;;;;;;;;;;26.40;79.30;;;;;;4948556;28;19934;-83
2022/07/29 06:37:33;;;;;;;;;;;26.40;79.10;;;;;;4946353;28;20352;-87
2022/07/29 06:42:49;;;;;;;;;;;25.70;81.10;;;;;;4945083;28;19961;-86
2022/07/29 06:45:15;;;;;;;;;;;25.10;81.50;;;;;;4945311;28;19911;-87
2022/07/29 06:47:42;;;;;;;;;;;24.90;82.40;;;;;;4951067;28;19910;-87
2022/07/29 06:50:12;;;;;;;;;;;24.90;82.90;;;;;;4947675;28;19942;-87
2022/07/29 06:52:42;;;;;;;;;;;25.10;83.20;;;;;;4946959;28;19921;-87
2022/07/29 06:55:09;;;;;;;;;;;25.50;82.60;;;;;;4948512;28;19910;-87
2022/07/29 06:57:37;;;;;;;;;;;25.80;82.30;;;;;;4945465;28;20139;-87
2022/07/29 07:00:05;;;;;;;;;;;25.90;81.80;;;;;;4951211;28;19914;-87
2022/07/29 07:02:36;;;;;;;;;;;25.90;81.50;;;;;;4944878;28;19914;-88
2022/07/29 07:05:05;;;;;;;;;;;25.90;81.60;;;;;;4946724;28;19951;-86
2022/07/29 07:07:32;;;;;;;;;;;25.70;81.30;;;;;;4942121;28;20009;-88
2022/07/29 07:09:58;;;;;;;;;;;25.70;81.40;;;;;;4945877;28;20423;-87
2022/07/29 07:12:26;;;;;;;;;;;25.80;81.60;;;;;;4946859;28;20032;-88
2022/07/29 07:14:52;;;;;;;;;;;25.80;82.10;;;;;;4950328;28;20005;-88
2022/07/29 07:17:22;;;;;;;;;;;25.90;83.00;;;;;;4947921;28;19922;-88
2022/07/29 07:19:52;;;;;;;;;;;26.00;82.40;;;;;;4948010;28;21287;-88
2022/07/29 07:22:26;;;;;;;;;;;26.00;82.20;;;;;;4953850;28;19914;-87
2022/07/29 07:24:53;;;;;;;;;;;26.10;82.20;;;;;;4948419;28;19934;-86
2022/07/29 07:27:29;;;;;;;;;;;26.40;81.90;;;;;;4947520;28;19910;-86
2022/07/29 07:29:56;;;;;;;;;;;26.50;81.70;;;;;;4946785;28;19910;-85
2022/07/29 07:32:24;;;;;;;;;;;26.40;81.60;;;;;;4947787;28;19940;-86
2022/07/29 07:34:49;;;;;;;;;;;26.30;82.00;;;;;;4942183;28;19926;-86
2022/07/29 07:37:19;;;;;;;;;;;26.70;80.80;;;;;;4942767;28;19922;-86
2022/07/29 07:39:44;;;;;;;;;;;27.10;80.10;;;;;;4949379;28;19915;-86
2022/07/29 07:42:20;;;;;;;;;;;27.30;78.90;;;;;;4945201;28;19925;-86
2022/07/29 07:44:49;;;;;;;;;;;27.40;78.60;;;;;;4943088;28;19914;-86
2022/07/29 07:47:25;;;;;;;;;;;27.50;77.20;;;;;;4947954;28;20013;-86
2022/07/29 07:49:54;;;;;;;;;;;27.40;78.50;;;;;;4945712;28;19921;-80
2022/07/29 07:52:21;;;;;;;;;;;27.80;77.20;;;;;;4946839;28;20401;-79
2022/07/29 07:54:51;;;;;;;;;;;27.90;76.90;;;;;;4945746;28;19919;-80
2022/07/29 07:57:17;;;;;;;;;;;28.00;76.60;;;;;;4948646;28;20012;-80
2022/07/29 07:59:44;;;;;;;;;;;27.70;76.50;;;;;;4949177;28;19911;-80
2022/07/29 08:02:11;;;;;;;;;;;27.20;77.90;;;;;;4945278;28;21250;-81
2022/07/29 08:04:54;;;;;;;;;;;26.80;78.20;;;;;;4942700;28;20001;-80
2022/07/29 08:07:22;;;;;;;;;;;27.10;78.50;;;;;;4942613;28;20589;-80
2022/07/29 08:09:55;;;;;;;;;;;26.80;78.80;;;;;;4944266;28;19915;-80
2022/07/29 08:12:21;;;;;;;;;;;27.10;78.80;;;;;;4945360;28;19973;-79
2022/07/29 08:14:50;;;;;;;;;;;28.00;77.20;;;;;;4949399;28;20271;-79
2022/07/29 08:17:18;;;;;;;;;;;29.50;73.40;;;;;;4942830;28;19965;-80
2022/07/29 08:19:43;;;;;;;;;;;30.90;71.60;;;;;;4943787;28;19957;-78
2022/07/29 08:22:13;;;;;;;;;;;32.60;67.80;;;;;;4943573;28;19915;-79
2022/07/29 08:24:52;;;;;;;;;;;33.10;65.60;;;;;;4944663;28;20378;-79
2022/07/29 08:27:19;;;;;;;;;;;32.70;64.60;;;;;;4947591;28;19918;-79
2022/07/29 08:29:51;;;;;;;;;;;32.50;64.60;;;;;;4946826;28;19918;-84
2022/07/29 08:32:23;;;;;;;;;;;33.10;63.70;;;;;;4941830;28;19922;-84
2022/07/29 08:34:49;;;;;;;;;;;34.70;61.00;;;;;;4942155;28;20005;-80
2022/07/29 08:37:16;;;;;;;;;;;34.30;60.40;;;;;;4941337;28;20006;-80
2022/07/29 08:39:46;;;;;;;;;;;35.60;59.40;;;;;;4940872;28;19933;-79
2022/07/29 08:42:13;;;;;;;;;;;36.70;57.30;;;;;;4946278;28;19961;-79
2022/07/29 08:44:46;;;;;;;;;;;37.10;54.30;;;;;;4943366;28;19911;-79
2022/07/29 08:47:13;;;;;;;;;;;36.20;54.90;;;;;;4942814;28;20356;-78
2022/07/29 08:49:39;;;;;;;;;;;35.10;55.90;;;;;;4942877;28;19961;-79
2022/07/29 08:52:06;;;;;;;;;;;33.60;57.70;;;;;;4948291;28;19918;-78
2022/07/29 08:54:31;;;;;;;;;;;33.30;59.10;;;;;;4941462;28;20371;-81
2022/07/29 08:56:57;;;;;;;;;;;33.10;59.40;;;;;;4941570;28;19910;-79
2022/07/29 08:59:26;;;;;;;;;;;33.50;59.40;;;;;;4947991;28;19922;-80
2022/07/29 09:01:53;;;;;;;;;;;33.70;58.80;;;;;;4953666;28;19921;-81
2022/07/29 09:04:20;;;;;;;;;;;33.40;58.80;;;;;;4945517;28;19911;-80
2022/07/29 09:06:51;;;;;;;;;;;33.10;59.10;;;;;;4945620;28;19966;-81
2022/07/29 09:09:19;;;;;;;;;;;32.90;59.50;;;;;;4940707;28;19915;-82
2022/07/29 09:11:45;;;;;;;;;;;33.10;59.20;;;;;;4948205;28;20651;-81
2022/07/29 09:14:13;;;;;;;;;;;32.60;60.10;;;;;;4943375;28;19945;-80
2022/07/29 09:16:57;;;;;;;;;;;33.70;58.60;;;;;;4948111;28;19918;-79
2022/07/29 09:19:34;;;;;;;;;;;34.10;58.30;;;;;;4949087;28;19922;-79
2022/07/29 09:22:04;;;;;;;;;;;34.80;58.10;;;;;;4944505;28;19918;-77
2022/07/29 09:24:34;;;;;;;;;;;35.70;56.70;;;;;;4949428;28;19918;-77
2022/07/29 09:27:01;;;;;;;;;;;37.30;53.90;;;;;;4944584;28;19915;-76
2022/07/29 09:29:27;;;;;;;;;;;37.40;52.70;;;;;;4946340;28;19930;-76
2022/07/29 09:31:54;;;;;;;;;;;34.60;55.20;;;;;;4948300;28;20041;-75
2022/07/29 09:34:37;;;;;;;;;;;33.70;57.40;;;;;;4949883;28;19925;-76
2022/07/29 09:37:04;;;;;;;;;;;33.80;57.10;;;;;;4945602;28;19976;-76
2022/07/29 09:39:32;;;;;;;;;;;34.50;57.40;;;;;;4938939;28;20396;-76
2022/07/29 09:42:01;;;;;;;;;;;33.30;57.40;;;;;;4946243;28;20276;-78
2022/07/29 09:44:49;;;;;;;;;;;33.30;58.80;;;;;;4949078;28;19918;-78
2022/07/29 09:47:21;;;;;;;;;;;32.80;58.70;;;;;;4942875;28;19910;-76
2022/07/29 09:49:57;;;;;;;;;;;31.80;62.10;;;;;;4944322;28;19915;-75
2022/07/29 09:52:30;;;;;;;;;;;31.70;61.20;;;;;;4945852;28;19915;-76
2022/07/29 09:55:15;;;;;;;;;;;32.20;60.70;;;;;;4936740;28;20288;-75
2022/07/29 09:57:40;;;;;;;;;;;31.90;60.30;;;;;;4944120;28;20430;-75
2022/07/29 10:00:06;;;;;;;;;;;30.90;62.40;;;;;;4945087;28;19914;-75
2022/07/29 10:02:33;;;;;;;;;;;30.90;62.20;;;;;;4933583;28;19911;-76
2022/07/29 10:04:59;;;;;;;;;;;30.80;62.80;;;;;;4942181;28;19915;-75
2022/07/29 10:07:25;;;;;;;;;;;31.90;61.80;;;;;;4944875;28;19926;-75
2022/07/29 10:09:55;;;;;;;;;;;32.40;60.00;;;;;;4940702;28;19919;-76
2022/07/29 10:12:21;;;;;;;;;;;33.30;59.30;;;;;;4945196;28;19914;-75
2022/07/29 10:14:54;;;;;;;;;;;32.80;59.10;;;;;;4945245;28;19919;-76
2022/07/29 10:17:20;;;;;;;;;;;33.20;59.10;;;;;;4942420;28;19918;-77
2022/07/29 10:19:50;;;;;;;;;;;33.60;58.50;;;;;;4943912;28;19937;-75
2022/07/29 10:22:18;;;;;;;;;;;32.30;59.50;;;;;;4950216;28;21419;-75
2022/07/29 10:24:44;;;;;;;;;;;31.10;61.50;;;;;;4949420;28;19910;-75
2022/07/29 10:27:12;;;;;;;;;;;32.10;60.40;;;;;;4945039;28;19999;-75
2022/07/29 10:29:38;;;;;;;;;;;32.90;59.20;;;;;;4941639;28;19954;-75
2022/07/29 10:32:25;;;;;;;;;;;33.60;58.40;;;;;;4957447;28;19971;-75
2022/07/29 10:34:51;;;;;;;;;;;33.90;58.10;;;;;;4945533;28;20005;-75
2022/07/29 10:37:25;;;;;;;;;;;34.30;57.30;;;;;;4954035;28;20548;-76
2022/07/29 10:41:26;;;;;;;;;;;35.10;56.20;;;;;;4945436;28;19941;-75
2022/07/29 10:43:02;;;;;;;;;;;35.40;54.80;;;;;;4946243;28;19918;-76
2022/07/29 10:45:36;;;;;;;;;;;34.90;55.80;;;;;;4953728;28;19954;-76
2022/07/29 10:48:07;;;;;;;;;;;34.10;57.20;;;;;;4949487;28;20001;-75
2022/07/29 10:50:51;;;;;;;;;;;32.00;59.40;;;;;;4943037;28;19915;-74
2022/07/29 10:53:18;;;;;;;;;;;31.00;60.80;;;;;;4947759;28;19946;-75
2022/07/29 10:55:48;;;;;;;;;;;31.10;61.80;;;;;;4942809;28;19914;-75
2022/07/29 10:58:18;;;;;;;;;;;31.40;61.70;;;;;;4945584;28;19921;-75
2022/07/29 11:00:45;;;;;;;;;;;31.70;60.80;;;;;;4948994;28;19914;-75
2022/07/29 11:03:13;;;;;;;;;;;31.80;61.30;;;;;;4939916;28;19941;-75
2022/07/29 11:06:00;;;;;;;;;;;32.20;60.70;;;;;;4947343;28;20320;-74
2022/07/29 11:08:30;;;;;;;;;;;32.40;59.70;;;;;;4947738;28;20372;-75
2022/07/29 11:11:15;;;;;;;;;;;32.70;59.30;;;;;;4948775;28;19918;-75
2022/07/29 11:13:50;;;;;;;;;;;32.40;59.90;;;;;;4943142;28;19922;-75
2022/07/29 11:16:17;;;;;;;;;;;33.40;59.50;;;;;;4950323;28;19946;-75
2022/07/29 11:19:01;;;;;;;;;;;33.80;58.30;;;;;;4940723;28;20379;-75
2022/07/29 11:21:36;;;;;;;;;;;34.40;57.20;;;;;;4949533;28;20102;-74
2022/07/29 11:24:17;;;;;;;;;;;34.30;57.30;;;;;;4947548;28;19997;-75
2022/07/29 11:26:45;;;;;;;;;;;34.10;56.80;;;;;;4939947;28;19915;-75
2022/07/29 11:29:21;;;;;;;;;;;33.10;57.90;;;;;;4946301;28;19918;-75
2022/07/29 11:31:54;;;;;;;;;;;32.80;58.60;;;;;;4947521;28;20255;-75
2022/07/29 11:34:35;;;;;;;;;;;33.00;58.80;;;;;;4945040;28;19911;-75
2022/07/29 11:37:13;;;;;;;;;;;32.50;59.00;;;;;;4947876;28;19923;-75
2022/07/29 11:39:56;;;;;;;;;;;32.00;59.10;;;;;;4944103;28;19914;-74
2022/07/29 11:42:25;;;;;;;;;;;32.00;59.60;;;;;;4937707;28;19922;-75
2022/07/29 11:45:06;;;;;;;;;;;32.30;60.00;;;;;;4948659;28;19923;-75
2022/07/29 11:47:41;;;;;;;;;;;32.40;59.80;;;;;;4944458;28;19910;-75
2022/07/29 11:50:12;;;;;;;;;;;32.90;58.80;;;;;;4948220;28;19922;-75
2022/07/29 11:52:42;;;;;;;;;;;31.90;59.60;;;;;;4943426;28;20280;-75
2022/07/29 11:55:19;;;;;;;;;;;31.50;60.80;;;;;;4949271;28;19917;-76
2022/07/29 11:57:58;;;;;;;;;;;32.20;61.30;;;;;;4946130;28;19910;-76
2022/07/29 12:00:27;;;;;;;;;;;33.00;59.90;;;;;;4944826;28;19962;-76
2022/07/29 12:02:53;;;;;;;;;;;33.30;59.20;;;;;;4948728;28;19918;-76
2022/07/29 12:05:33;;;;;;;;;;;33.30;59.50;;;;;;4948889;28;20009;-75
2022/07/29 12:08:19;;;;;;;;;;;33.20;59.20;;;;;;4959862;28;19953;-75
2022/07/29 12:10:46;;;;;;;;;;;32.20;59.50;;;;;;4936394;28;19918;-75
2022/07/29 12:13:23;;;;;;;;;;;32.10;60.90;;;;;;4947860;28;19911;-75
2022/07/29 12:15:54;;;;;;;;;;;32.10;61.40;;;;;;4943026;28;19917;-75
2022/07/29 12:18:20;;;;;;;;;;;32.10;60.60;;;;;;4946991;28;19910;-75
2022/07/29 12:20:47;;;;;;;;;;;31.70;60.70;;;;;;4943054;28;19922;-75
2022/07/29 12:23:13;;;;;;;;;;;31.70;61.30;;;;;;4946282;28;19917;-75
2022/07/29 12:25:41;;;;;;;;;;;31.60;61.30;;;;;;4951715;28;19910;-75
2022/07/29 12:28:09;;;;;;;;;;;31.60;61.00;;;;;;4942981;28;19957;-75
2022/07/29 12:30:38;;;;;;;;;;;31.90;60.70;;;;;;4955482;28;19911;-75
2022/07/29 12:33:09;;;;;;;;;;;32.00;60.80;;;;;;4949539;28;19910;-75
2022/07/29 12:35:35;;;;;;;;;;;31.90;60.40;;;;;;4942500;28;19918;-75
2022/07/29 12:38:04;;;;;;;;;;;31.80;60.70;;;;;;4947530;28;20379;-75
2022/07/29 12:40:33;;;;;;;;;;;31.90;60.80;;;;;;4941517;28;19977;-75
2022/07/29 12:43:05;;;;;;;;;;;32.00;60.10;;;;;;4941700;28;19918;-75
2022/07/29 12:45:34;;;;;;;;;;;31.90;60.70;;;;;;4946179;28;20004;-75
2022/07/29 12:48:00;;;;;;;;;;;31.70;60.60;;;;;;4960113;28;20575;-75
2022/07/29 12:50:32;;;;;;;;;;;31.40;61.90;;;;;;4938555;28;19947;-75
2022/07/29 12:53:13;;;;;;;;;;;31.30;61.70;;;;;;4948648;28;19918;-75
2022/07/29 12:55:42;;;;;;;;;;;31.20;61.80;;;;;;4939376;28;20331;-77
2022/07/29 12:58:10;;;;;;;;;;;31.00;62.40;;;;;;4945110;28;20276;-75
2022/07/29 13:00:36;;;;;;;;;;;30.90;62.90;;;;;;4945381;28;19922;-75
2022/07/29 13:03:01;;;;;;;;;;;30.80;63.40;;;;;;4949608;28;19910;-75
2022/07/29 13:05:47;;;;;;;;;;;30.70;63.50;;;;;;4947266;28;19919;-76
2022/07/29 13:08:20;;;;;;;;;;;30.60;63.90;;;;;;4941495;28;20442;-78
2022/07/29 13:10:50;;;;;;;;;;;30.20;64.50;;;;;;4943059;28;19918;-76
2022/07/29 13:13:16;;;;;;;;;;;30.00;65.50;;;;;;4939953;28;19938;-75
2022/07/29 13:15:47;;;;;;;;;;;29.60;65.80;;;;;;4940523;28;19914;-75
2022/07/29 13:18:29;;;;;;;;;;;29.60;66.40;;;;;;4969311;28;20423;-75
2022/07/29 13:21:09;;;;;;;;;;;29.40;66.50;;;;;;4943694;28;19969;-75
2022/07/29 13:23:35;;;;;;;;;;;29.30;66.90;;;;;;4943255;28;20550;-77
2022/07/29 13:26:16;;;;;;;;;;;29.20;66.80;;;;;;4946656;28;19914;-78
2022/07/29 13:28:43;;;;;;;;;;;29.00;67.40;;;;;;4941091;28;20467;-78
2022/07/29 13:31:15;;;;;;;;;;;28.80;68.40;;;;;;4947030;28;19911;-77
2022/07/29 13:33:53;;;;;;;;;;;28.70;69.60;;;;;;4943937;28;19914;-78
2022/07/29 13:36:20;;;;;;;;;;;28.50;71.20;;;;;;4944823;28;20356;-79
2022/07/29 13:38:47;;;;;;;;;;;28.40;72.20;;;;;;4941993;28;20264;-79
2022/07/29 13:41:29;;;;;;;;;;;28.20;74.40;;;;;;4943697;28;19914;-78
2022/07/29 13:43:55;;;;;;;;;;;28.10;78.90;;;;;;4944258;28;19919;-78
2022/07/29 13:46:29;;;;;;;;;;;27.90;80.10;;;;;;4948504;28;19945;-79
2022/07/29 13:48:55;;;;;;;;;;;27.70;81.30;;;;;;4943323;28;20321;-79
2022/07/29 13:51:28;;;;;;;;;;;27.50;83.30;;;;;;4946986;28;19957;-79
2022/07/29 13:54:00;;;;;;;;;;;27.30;85.50;;;;;;4942526;28;19914;-77
2022/07/29 13:56:31;;;;;;;;;;;27.00;85.40;;;;;;4946795;28;19918;-77
2022/07/29 13:59:00;;;;;;;;;;;26.80;89.60;;;;;;4946513;28;20276;-78
2022/07/29 14:01:27;;;;;;;;;;;26.50;90.10;;;;;;4946874;28;20064;-77
2022/07/29 14:03:56;;;;;;;;;;;26.40;91.60;;;;;;4950631;28;19919;-76
2022/07/29 14:06:35;;;;;;;;;;;26.10;91.80;;;;;;4952870;28;19918;-77
2022/07/29 14:09:02;;;;;;;;;;;25.80;92.80;;;;;;4945972;28;19997;-77
2022/07/29 14:11:32;;;;;;;;;;;25.60;94.20;;;;;;4948836;28;19919;-78
2022/07/29 14:14:11;;;;;;;;;;;25.20;94.80;;;;;;4947504;28;19922;-76
2022/07/29 14:16:39;;;;;;;;;;;24.90;95.90;;;;;;4954837;28;19911;-77
2022/07/29 14:19:13;;;;;;;;;;;24.70;98.20;;;;;;4948252;28;19910;-77
2022/07/29 14:21:41;;;;;;;;;;;24.50;98.60;;;;;;4947088;28;19969;-77
2022/07/29 14:24:09;;;;;;;;;;;24.20;99.90;;;;;;4943660;28;19949;-77
2022/07/29 14:26:42;;;;;;;;;;;24.10;99.90;;;;;;4945216;28;19962;-77
2022/07/29 14:29:07;;;;;;;;;;;23.90;99.90;;;;;;4950880;28;19946;-77
2022/07/29 14:31:33;;;;;;;;;;;23.70;99.90;;;;;;4943609;28;20020;-77
2022/07/29 14:34:09;;;;;;;;;;;23.70;99.90;;;;;;4952948;28;19946;-76
2022/07/29 14:36:41;;;;;;;;;;;23.60;99.90;;;;;;4944935;28;19918;-78
2022/07/29 14:39:17;;;;;;;;;;;23.50;99.90;;;;;;4949229;28;19910;-78
2022/07/29 14:41:43;;;;;;;;;;;23.40;99.90;;;;;;4948459;28;20548;-77
2022/07/29 14:44:16;;;;;;;;;;;23.30;99.90;;;;;;4946855;28;19917;-78
2022/07/29 14:46:53;;;;;;;;;;;23.20;99.90;;;;;;4945491;28;19914;-77
2022/07/29 14:49:20;;;;;;;;;;;23.20;99.90;;;;;;4944519;28;19958;-77
2022/07/29 14:51:53;;;;;;;;;;;23.20;99.90;;;;;;4951795;28;19914;-78
2022/07/29 14:54:21;;;;;;;;;;;23.20;99.90;;;;;;4949764;28;20448;-77
2022/07/29 14:56:50;;;;;;;;;;;23.20;99.90;;;;;;4943063;28;19910;-77
2022/07/29 14:59:16;;;;;;;;;;;23.20;99.90;;;;;;4944557;28;20013;-78
2022/07/29 15:01:43;;;;;;;;;;;23.10;99.90;;;;;;4944579;28;20005;-77
2022/07/29 15:04:11;;;;;;;;;;;22.90;99.90;;;;;;4952367;28;19916;-77
2022/07/29 15:06:37;;;;;;;;;;;22.60;99.90;;;;;;4949894;28;20436;-77
2022/07/29 15:09:06;;;;;;;;;;;22.60;99.90;;;;;;4944987;28;19910;-78
2022/07/29 15:11:34;;;;;;;;;;;22.90;99.90;;;;;;4947317;28;19917;-77
2022/07/29 15:13:59;;;;;;;;;;;23.30;99.90;;;;;;4949231;28;19937;-78
2022/07/29 15:16:41;;;;;;;;;;;23.60;99.90;;;;;;4949832;28;19911;-78
2022/07/29 15:19:13;;;;;;;;;;;23.80;99.90;;;;;;4942783;28;19910;-77
2022/07/29 15:21:41;;;;;;;;;;;23.90;99.90;;;;;;4950705;28;19921;-77
2022/07/29 15:24:12;;;;;;;;;;;24.00;99.90;;;;;;4942084;28;20279;-78
2022/07/29 15:26:42;;;;;;;;;;;24.10;99.90;;;;;;4948614;28;19921;-78
2022/07/29 15:29:15;;;;;;;;;;;24.10;99.90;;;;;;4943107;28;19910;-77
2022/07/29 15:31:42;;;;;;;;;;;24.10;99.90;;;;;;4946312;28;19910;-78
2022/07/29 15:34:09;;;;;;;;;;;24.20;99.90;;;;;;4951539;28;19910;-77
2022/07/29 15:36:36;;;;;;;;;;;24.20;99.90;;;;;;4939219;28;19914;-77
2022/07/29 15:39:08;;;;;;;;;;;24.20;99.90;;;;;;4947856;28;19997;-77